createdAt,value
2018-11-27T00:00:58.818Z,26.17
2018-11-27T00:05:01.182Z,27.60
2018-11-27T00:09:04.403Z,26.30
2018-11-27T00:13:06.787Z,23.60
2018-11-27T00:17:09.163Z,27.27
2018-11-27T00:21:11.509Z,31.10
2018-11-27T00:25:14.993Z,30.93
2018-11-27T00:29:17.410Z,29.10
2018-11-27T00:33:19.759Z,26.70
2018-11-27T00:37:22.159Z,26.13
2018-11-27T00:41:24.522Z,26.63
2018-11-27T00:45:26.902Z,30.53
2018-11-27T00:49:29.265Z,28.30
2018-11-27T00:53:31.581Z,24.67
2018-11-27T00:57:34.000Z,26.67
2018-11-27T01:01:36.487Z,25.77
2018-11-27T01:05:38.842Z,26.17
2018-11-27T01:09:41.202Z,26.37
2018-11-27T01:13:43.552Z,28.67
2018-11-27T01:17:47.235Z,26.97
2018-11-27T01:21:50.152Z,32.13
2018-11-27T01:25:52.526Z,29.37
2018-11-27T01:29:54.881Z,24.70
2018-11-27T01:33:57.197Z,31.00
2018-11-27T01:37:59.596Z,30.00
2018-11-27T01:42:01.947Z,34.00
2018-11-27T01:46:04.687Z,33.17
2018-11-27T01:50:09.178Z,30.67
2018-11-27T01:54:11.467Z,30.03
2018-11-27T01:58:13.834Z,28.23
2018-11-27T02:02:16.246Z,24.90
2018-11-27T02:06:18.548Z,29.77
2018-11-27T02:10:20.931Z,29.10
2018-11-27T02:14:23.254Z,30.17
2018-11-27T02:18:25.653Z,30.57
2018-11-27T02:22:28.051Z,33.37
2018-11-27T02:26:30.459Z,27.27
2018-11-27T02:30:33.054Z,28.97
2018-11-27T02:34:35.463Z,28.87
2018-11-27T02:38:37.775Z,32.70
2018-11-27T02:42:40.268Z,30.27
2018-11-27T02:46:42.628Z,28.70
2018-11-27T02:50:44.998Z,30.63
2018-11-27T02:54:47.338Z,34.67
2018-11-27T02:58:49.787Z,33.97
2018-11-27T03:02:52.178Z,27.80
2018-11-27T03:06:54.525Z,30.00
2018-11-27T03:10:56.933Z,28.47
2018-11-27T03:14:59.314Z,36.00
2018-11-27T03:19:01.712Z,31.27
2018-11-27T03:23:04.378Z,35.83
2018-11-27T03:27:06.804Z,32.03
2018-11-27T03:31:09.173Z,30.73
2018-11-27T03:35:13.457Z,36.67
2018-11-27T03:39:15.813Z,37.40
2018-11-27T03:43:18.195Z,43.83
2018-11-27T03:47:20.597Z,35.67
2018-11-27T03:51:23.027Z,34.67
2018-11-27T03:55:25.434Z,37.97
2018-11-27T03:59:27.833Z,37.27
2018-11-27T04:03:30.189Z,34.20
2018-11-27T04:07:33.045Z,32.97
2018-11-27T04:11:35.388Z,38.97
2018-11-27T04:15:37.790Z,40.40
2018-11-27T04:19:40.359Z,36.27
2018-11-27T04:23:42.794Z,41.53
2018-11-27T04:27:45.825Z,36.87
2018-11-27T04:31:48.194Z,34.30
2018-11-27T04:35:50.748Z,39.40
2018-11-27T04:39:53.042Z,37.03
2018-11-27T04:43:55.343Z,36.93
2018-11-27T04:47:57.654Z,41.98
2018-11-27T04:51:59.957Z,40.13
2018-11-27T04:56:02.417Z,35.13
2018-11-27T05:00:08.972Z,39.43
2018-11-27T05:04:11.356Z,40.23
2018-11-27T05:08:13.678Z,41.67
2018-11-27T05:12:16.054Z,36.80
2018-11-27T05:16:18.433Z,38.33
2018-11-27T05:20:20.929Z,32.33
2018-11-27T05:24:23.312Z,40.90
2018-11-27T05:28:25.723Z,33.37
2018-11-27T05:32:28.082Z,39.83
2018-11-27T05:36:30.377Z,35.13
2018-11-27T05:40:32.771Z,33.93
2018-11-27T05:44:35.147Z,33.37
2018-11-27T05:48:37.546Z,37.20
2018-11-27T05:52:39.956Z,39.77
2018-11-27T05:56:42.320Z,33.37
2018-11-27T06:00:44.790Z,32.10
2018-11-27T06:04:47.202Z,32.87
2018-11-27T06:08:49.765Z,27.00
2018-11-27T06:12:52.220Z,34.00
2018-11-27T06:16:54.637Z,37.03
2018-11-27T06:20:57.057Z,27.63
2018-11-27T06:24:59.427Z,39.67
2018-11-27T06:29:01.856Z,34.07
2018-11-27T06:33:04.452Z,33.77
2018-11-27T06:37:06.804Z,32.70
2018-11-27T06:41:09.249Z,38.07
2018-11-27T06:45:13.930Z,37.73
2018-11-27T06:49:16.516Z,33.13
2018-11-27T06:53:18.967Z,30.20
2018-11-27T06:57:21.719Z,32.53
2018-11-27T07:01:23.870Z,33.60
2018-11-27T07:05:26.350Z,29.37
2018-11-27T07:09:28.804Z,26.87
2018-11-27T07:13:31.165Z,30.50
2018-11-27T07:17:33.552Z,31.87
2018-11-27T07:21:35.964Z,30.63
2018-11-27T07:25:38.438Z,33.93
2018-11-27T07:29:40.824Z,29.80
2018-11-27T07:33:43.146Z,30.47
2018-11-27T07:37:45.675Z,39.00
2018-11-27T07:41:48.071Z,27.20
2018-11-27T07:45:55.067Z,34.23
2018-11-27T07:49:52.866Z,29.50
2018-11-27T07:53:55.219Z,35.50
2018-11-27T07:57:57.647Z,36.13
2018-11-27T08:02:00.107Z,32.33
2018-11-27T08:06:02.430Z,33.43
2018-11-27T08:10:08.919Z,27.33
2018-11-27T08:14:11.304Z,28.17
2018-11-27T08:18:13.640Z,29.57
2018-11-27T08:22:15.954Z,31.30
2018-11-27T08:26:18.608Z,30.83
2018-11-27T08:30:21.640Z,39.00
2018-11-27T08:34:24.006Z,32.80
2018-11-27T08:38:26.335Z,34.17
2018-11-27T08:42:28.699Z,32.73
2018-11-27T08:46:31.065Z,31.60
2018-11-27T08:50:33.412Z,33.43
2018-11-27T08:54:35.840Z,36.60
2018-11-27T08:58:38.236Z,33.03
2018-11-27T09:02:40.603Z,43.73
2018-11-27T09:06:43.059Z,36.73
2018-11-27T09:10:45.536Z,38.77
2018-11-27T09:14:47.869Z,37.80
2018-11-27T09:18:50.253Z,36.90
2018-11-27T09:22:52.555Z,31.90
2018-11-27T09:26:54.918Z,36.57
2018-11-27T09:30:57.305Z,28.07
2018-11-27T09:34:59.609Z,30.70
2018-11-27T09:39:02.024Z,35.13
2018-11-27T09:43:04.728Z,30.43
2018-11-27T09:47:07.115Z,32.60
2018-11-27T09:51:09.441Z,36.70
2018-11-27T09:55:16.698Z,33.43
2018-11-27T09:59:19.075Z,35.60
2018-11-27T10:03:21.481Z,36.23
2018-11-27T10:07:23.876Z,31.67
2018-11-27T10:11:26.276Z,36.33
2018-11-27T10:15:28.987Z,31.23
2018-11-27T10:19:31.440Z,33.97
2018-11-27T10:23:33.789Z,34.17
2018-11-27T10:27:36.273Z,36.10
2018-11-27T10:31:38.654Z,37.33
2018-11-27T10:35:43.629Z,33.27
2018-11-27T10:39:46.033Z,34.40
2018-11-27T10:43:48.393Z,34.83
2018-11-27T10:47:51.925Z,31.17
2018-11-27T10:51:54.290Z,34.80
2018-11-27T10:55:56.594Z,31.03
2018-11-27T10:59:58.971Z,33.03
2018-11-27T11:04:01.343Z,31.33
2018-11-27T11:08:03.852Z,33.00
2018-11-27T11:12:06.205Z,32.90
2018-11-27T11:16:08.558Z,33.73
2018-11-27T11:20:11.520Z,29.63
2018-11-27T11:24:13.938Z,32.93
2018-11-27T11:28:17.888Z,31.13
2018-11-27T11:32:20.411Z,28.83
2018-11-27T11:36:22.784Z,29.20
2018-11-27T11:40:25.534Z,31.07
2018-11-27T11:44:28.014Z,35.23
2018-11-27T11:48:30.379Z,38.80
2018-11-27T11:52:34.639Z,35.37
2018-11-27T11:56:35.165Z,37.37
2018-11-27T12:00:41.284Z,32.07
2018-11-27T12:04:43.689Z,41.40
2018-11-27T12:08:46.031Z,38.77
2018-11-27T12:12:48.407Z,33.03
2018-11-27T12:16:50.798Z,37.87
2018-11-27T12:20:53.186Z,31.70
2018-11-27T12:24:55.670Z,36.80
2018-11-27T12:28:57.994Z,32.00
2018-11-27T12:33:00.369Z,37.60
2018-11-27T12:37:03.780Z,32.03
2018-11-27T12:41:10.179Z,38.03
2018-11-27T12:45:12.710Z,32.30
2018-11-27T12:49:15.158Z,33.83
2018-11-27T12:53:18.251Z,37.50
2018-11-27T12:57:20.610Z,36.10
2018-11-27T13:01:23.002Z,30.57
2018-11-27T13:05:26.782Z,33.17
2018-11-27T13:09:29.198Z,33.57
2018-11-27T13:18:17.650Z,33.93
2018-11-27T13:22:20.005Z,34.50
2018-11-27T13:26:22.347Z,32.63
2018-11-27T13:30:46.042Z,35.20
2018-11-27T13:34:52.539Z,30.17
2018-11-27T13:38:50.758Z,34.27
2018-11-27T13:42:53.122Z,31.53
2018-11-27T13:46:55.484Z,35.53
2018-11-27T13:50:57.832Z,34.33
2018-11-27T13:55:00.363Z,35.53
2018-11-27T13:59:02.782Z,35.63
2018-11-27T14:03:10.649Z,34.00
2018-11-27T14:07:07.900Z,30.40
2018-11-27T14:11:10.404Z,32.73
2018-11-27T14:15:17.917Z,32.30
2018-11-27T14:19:20.352Z,37.67
2018-11-27T14:23:22.797Z,35.53
2018-11-27T14:27:25.198Z,33.10
2018-11-27T14:31:27.629Z,35.67
2018-11-27T14:35:30.042Z,33.53
2018-11-27T14:39:32.391Z,42.87
2018-11-27T14:43:34.760Z,30.40
2018-11-27T14:47:37.112Z,37.07
2018-11-27T14:51:39.510Z,34.90
2018-11-27T14:55:41.896Z,40.07
2018-11-27T14:59:44.288Z,31.13
2018-11-27T15:03:46.679Z,32.40
2018-11-27T15:07:49.228Z,37.87
2018-11-27T15:11:51.586Z,34.60
2018-11-27T15:15:54.128Z,36.67
2018-11-27T15:19:56.453Z,34.53
2018-11-27T15:23:58.823Z,34.17
2018-11-27T15:28:01.224Z,31.60
2018-11-27T15:32:03.686Z,36.77
2018-11-27T15:36:06.166Z,38.63
2018-11-27T15:40:13.908Z,35.50
2018-11-27T15:44:17.197Z,29.53
2018-11-27T15:48:19.562Z,32.13
2018-11-27T15:52:21.897Z,34.47
2018-11-27T15:56:24.257Z,34.67
2018-11-27T16:00:26.704Z,32.53
2018-11-27T16:04:29.076Z,30.87
2018-11-27T16:08:31.476Z,27.43
2018-11-27T16:12:33.847Z,32.53
2018-11-27T16:16:36.291Z,31.50
2018-11-27T16:20:39.843Z,34.40
2018-11-27T16:24:43.984Z,36.23
2018-11-27T16:28:46.309Z,34.47
2018-11-27T16:32:48.705Z,37.00
2018-11-27T16:36:51.301Z,33.50
2018-11-27T16:40:53.800Z,33.00
2018-11-27T16:44:56.161Z,32.87
2018-11-27T16:48:58.487Z,34.53
2018-11-27T16:53:00.871Z,31.63
2018-11-27T16:57:03.371Z,34.20
2018-11-27T17:01:09.088Z,34.30
2018-11-27T17:05:08.658Z,28.37
2018-11-27T17:09:11.084Z,33.77
2018-11-27T17:13:14.573Z,32.43
2018-11-27T17:17:16.866Z,30.80
2018-11-27T17:21:19.182Z,29.40
2018-11-27T17:25:21.580Z,33.20
2018-11-27T17:29:23.991Z,34.10
2018-11-27T17:33:35.793Z,32.73
2018-11-27T17:37:38.233Z,35.67
2018-11-27T17:41:40.688Z,34.70
2018-11-27T17:45:43.108Z,34.57
2018-11-27T17:49:45.591Z,32.83
2018-11-27T17:53:47.958Z,33.87
2018-11-27T17:57:50.882Z,34.93
2018-11-27T18:01:53.289Z,34.70
2018-11-27T18:05:55.691Z,33.55
2018-11-27T18:09:59.066Z,32.27
2018-11-27T18:14:01.384Z,34.87
2018-11-27T18:18:05.112Z,37.20
2018-11-27T18:22:07.833Z,47.87
2018-11-27T18:26:10.785Z,32.00
2018-11-27T18:30:19.609Z,39.00
2018-11-27T18:34:22.138Z,35.10
2018-11-27T18:38:24.720Z,35.52
2018-11-27T18:42:27.226Z,33.08
2018-11-27T18:46:29.796Z,40.60
2018-11-27T18:50:34.460Z,37.43
2018-11-27T18:54:37.198Z,35.00
2018-11-27T18:58:39.830Z,38.97
2018-11-27T19:02:42.330Z,36.83
2018-11-27T19:06:44.923Z,43.00
2018-11-27T19:10:47.381Z,42.03
2018-11-27T19:14:49.783Z,44.30
2018-11-27T19:18:52.262Z,35.67
2018-11-27T19:22:54.606Z,38.63
2018-11-27T19:26:57.041Z,38.17
2018-11-27T19:30:59.448Z,44.87
2018-11-27T19:35:01.886Z,37.03
2018-11-27T19:39:07.027Z,38.83
2018-11-27T19:43:09.384Z,38.90
2018-11-27T19:47:11.802Z,37.27
2018-11-27T19:51:16.394Z,38.70
2018-11-27T19:55:19.615Z,39.83
2018-11-27T19:59:22.115Z,49.03
2018-11-27T20:03:24.620Z,46.73
2018-11-27T20:07:27.067Z,38.40
2018-11-27T20:15:39.464Z,38.90
2018-11-27T20:19:48.500Z,41.93
2018-11-27T20:23:50.886Z,35.95
2018-11-27T20:27:53.449Z,36.57
2018-11-27T20:31:56.626Z,39.90
2018-11-27T20:35:59.587Z,33.87
2018-11-27T20:40:02.009Z,45.60
2018-11-27T20:44:05.262Z,40.93
2018-11-27T20:48:22.641Z,42.37
2018-11-27T20:52:26.443Z,42.87
2018-11-27T20:56:28.893Z,43.27
2018-11-27T21:00:37.944Z,43.70
2018-11-27T21:04:40.451Z,40.63
2018-11-27T21:08:42.875Z,42.57
2018-11-27T21:12:48.094Z,41.20
2018-11-27T21:16:50.610Z,39.90
2018-11-27T21:20:53.012Z,46.03
2018-11-27T21:24:55.380Z,40.50
2018-11-27T21:28:58.643Z,37.10
2018-11-27T21:33:00.989Z,42.27
2018-11-27T21:37:03.409Z,39.17
2018-11-27T21:41:06.210Z,63.03
2018-11-27T21:45:10.866Z,34.93
2018-11-27T21:49:13.256Z,35.93
2018-11-27T21:53:16.524Z,40.80
2018-11-27T21:57:18.967Z,42.83
2018-11-27T22:01:21.362Z,45.13
2018-11-27T22:05:24.649Z,38.43
2018-11-27T22:09:27.114Z,42.33
2018-11-27T22:13:29.579Z,40.30
2018-11-27T22:17:31.913Z,44.13
2018-11-27T22:21:34.279Z,38.73
2018-11-27T22:25:37.528Z,38.90
2018-11-27T22:29:39.902Z,44.23
2018-11-27T22:33:42.309Z,40.47
2018-11-27T22:37:46.370Z,40.73
2018-11-27T22:41:48.719Z,50.93
2018-11-27T22:45:51.189Z,46.43
2018-11-27T22:49:53.701Z,47.00
2018-11-27T22:53:56.198Z,49.97
2018-11-27T22:57:59.447Z,46.27
2018-11-27T23:02:01.847Z,49.23
2018-11-27T23:06:06.219Z,41.50
2018-11-27T23:10:09.287Z,44.87
2018-11-27T23:14:12.109Z,46.37
2018-11-27T23:18:14.689Z,45.67
2018-11-27T23:22:18.352Z,45.00
2018-11-27T23:26:20.909Z,45.20
2018-11-27T23:30:24.543Z,50.03
2018-11-27T23:34:26.977Z,44.90
2018-11-27T23:38:29.378Z,54.97
2018-11-27T23:42:31.785Z,44.17
2018-11-27T23:46:34.144Z,47.33
2018-11-27T23:50:36.517Z,47.97
2018-11-27T23:54:38.888Z,43.50
2018-11-27T23:58:41.262Z,49.63
